Terminal Aerodrome Forecast
Issued by NWS

Home | Current Version | Previous Version | Graphics & Text | Print | Product List | Glossary On
Versions: 1 2 3 4 5 6 7 8 9 10 11 12 13 14 15 16 17 18 19 20 21 22 23 24
292
FTUS43 KICT 250520
TAFSLN
TAF
KSLN 250520Z 2506/2606 03004KT P6SM VCSH BKN100
     FM251300 04005KT P6SM BKN150
     FM251500 02004KT P6SM BKN100
     FM251700 06005KT P6SM VCSH BKN080
     FM252300 08005KT P6SM BKN080=

USA.gov is the U.S. government's official web portal to all federal, state and local government web resources and services.